Time;durP1;ratioP1;P1;durP2;ratioP2;P2;SDS_P1;SDS_P2;PMS_P1;PMS_P2;Temp;Humidity;BMP_temperature;BMP_pressure;BME280_temperature;BME280_humidity;BME280_pressure;Samples;Min_cycle;Max_cycle;Signal;HPM_P1;HPM_P2
2023/07/25 00:00:29;;;;;;;2.97;2.78;;;;;;;;;;5153355;27;20210;-63
2023/07/25 00:02:55;;;;;;;2.95;2.75;;;;;;;;;;5155117;27;20194;-63
2023/07/25 00:05:21;;;;;;;2.50;2.30;;;;;;;;;;5154319;27;20202;-63
2023/07/25 00:07:47;;;;;;;2.65;2.45;;;;;;;;;;5151974;27;20529;-63
2023/07/25 00:10:14;;;;;;;3.08;2.17;;;;;;;;;;5151687;27;20198;-63
2023/07/25 00:12:40;;;;;;;2.88;2.53;;;;;;;;;;5154745;27;20194;-63
2023/07/25 00:15:07;;;;;;;2.45;2.35;;;;;;;;;;5155163;27;20532;-63
2023/07/25 00:17:35;;;;;;;3.30;2.38;;;;;;;;;;5152649;27;20269;-63
2023/07/25 00:20:01;;;;;;;2.13;2.03;;;;;;;;;;5155012;27;20266;-63
2023/07/25 00:22:27;;;;;;;3.80;2.53;;;;;;;;;;5157229;27;20205;-63
2023/07/25 00:24:53;;;;;;;3.00;2.70;;;;;;;;;;5159456;27;20189;-63
2023/07/25 00:27:19;;;;;;;2.42;2.33;;;;;;;;;;5158780;27;20209;-63
2023/07/25 00:29:47;;;;;;;2.72;2.63;;;;;;;;;;5155760;27;20302;-63
2023/07/25 00:32:13;;;;;;;2.67;2.47;;;;;;;;;;5155549;27;20194;-63
2023/07/25 00:34:41;;;;;;;2.40;2.30;;;;;;;;;;5159030;27;20200;-63
2023/07/25 00:37:07;;;;;;;2.78;2.55;;;;;;;;;;5159260;27;20210;-63
2023/07/25 00:39:33;;;;;;;2.42;2.33;;;;;;;;;;5156895;27;20197;-63
2023/07/25 00:41:59;;;;;;;3.20;2.42;;;;;;;;;;5155560;27;20644;-63
2023/07/25 00:44:26;;;;;;;2.55;2.45;;;;;;;;;;5156611;27;20217;-63
2023/07/25 00:46:52;;;;;;;2.92;2.70;;;;;;;;;;5158994;27;20189;-63
2023/07/25 00:49:18;;;;;;;2.33;2.15;;;;;;;;;;5158970;27;20194;-63
2023/07/25 00:51:46;;;;;;;3.08;2.80;;;;;;;;;;5155454;27;20555;-63
2023/07/25 00:54:12;;;;;;;2.90;2.70;;;;;;;;;;5155357;27;20201;-63
2023/07/25 00:56:38;;;;;;;2.88;2.78;;;;;;;;;;5157958;27;20552;-63
2023/07/25 00:59:05;;;;;;;3.03;2.83;;;;;;;;;;5158687;27;20520;-63
2023/07/25 01:01:31;;;;;;;2.78;2.65;;;;;;;;;;5156499;27;20228;-63
2023/07/25 01:03:57;;;;;;;3.45;2.35;;;;;;;;;;5155456;27;20195;-63
2023/07/25 01:06:24;;;;;;;2.80;2.60;;;;;;;;;;5155699;27;20191;-63
2023/07/25 01:08:52;;;;;;;3.80;2.83;;;;;;;;;;5158624;27;20230;-62
2023/07/25 01:11:19;;;;;;;2.83;2.63;;;;;;;;;;5158342;27;20200;-63
2023/07/25 01:13:45;;;;;;;3.60;2.45;;;;;;;;;;5146427;27;20536;-63
2023/07/25 01:16:14;;;;;;;2.78;2.60;;;;;;;;;;5154623;27;20277;-63
2023/07/25 01:18:40;;;;;;;3.58;3.03;;;;;;;;;;5154943;27;20210;-63
2023/07/25 01:21:07;;;;;;;2.72;2.60;;;;;;;;;;5154945;27;20201;-62
2023/07/25 01:23:34;;;;;;;3.13;3.00;;;;;;;;;;5156506;27;20521;-63
2023/07/25 01:26:01;;;;;;;4.93;2.92;;;;;;;;;;5158244;27;20423;-63
2023/07/25 01:28:27;;;;;;;2.70;2.60;;;;;;;;;;5156810;27;20540;-63
2023/07/25 01:30:54;;;;;;;2.90;2.60;;;;;;;;;;5153211;27;20416;-63
2023/07/25 01:33:20;;;;;;;3.00;2.80;;;;;;;;;;5154492;27;20202;-63
2023/07/25 01:35:46;;;;;;;3.42;3.22;;;;;;;;;;5146335;27;20218;-63
2023/07/25 01:38:12;;;;;;;5.47;2.90;;;;;;;;;;5154456;27;20194;-63
2023/07/25 01:40:40;;;;;;;3.40;3.10;;;;;;;;;;5157076;27;20206;-63
2023/07/25 01:43:07;;;;;;;2.90;2.70;;;;;;;;;;5157748;27;20205;-63
2023/07/25 01:45:33;;;;;;;3.10;2.63;;;;;;;;;;5156079;27;20197;-63
2023/07/25 01:48:00;;;;;;;2.90;2.70;;;;;;;;;;5154336;27;20198;-63
2023/07/25 01:50:26;;;;;;;3.70;3.25;;;;;;;;;;5154813;27;20198;-63
2023/07/25 01:52:53;;;;;;;3.58;3.17;;;;;;;;;;5157398;27;20201;-63
2023/07/25 01:55:19;;;;;;;2.80;2.63;;;;;;;;;;5157808;27;20275;-63
2023/07/25 02:00:56;;;;;;;3.42;3.22;;;;;;;;;;5145631;27;20231;-63
2023/07/25 02:03:22;;;;;;;3.08;2.83;;;;;;;;;;5153829;27;20202;-63
2023/07/25 02:05:50;;;;;;;2.60;2.40;;;;;;;;;;5157465;27;20394;-63
2023/07/25 02:08:16;;;;;;;4.75;2.63;;;;;;;;;;5157540;27;20257;-63
2023/07/25 02:10:43;;;;;;;3.38;2.80;;;;;;;;;;5154459;27;20202;-63
2023/07/25 02:13:09;;;;;;;2.90;2.70;;;;;;;;;;5153744;27;20270;-63
2023/07/25 02:15:36;;;;;;;2.92;2.72;;;;;;;;;;5155567;27;20203;-63
2023/07/25 02:18:03;;;;;;;3.33;2.75;;;;;;;;;;5157271;27;20194;-63
2023/07/25 02:20:31;;;;;;;4.43;2.83;;;;;;;;;;5156074;27;20197;-63
2023/07/25 02:22:57;;;;;;;2.50;2.40;;;;;;;;;;5153636;27;20386;-63
2023/07/25 02:25:23;;;;;;;3.15;2.83;;;;;;;;;;5153391;27;20195;-63
2023/07/25 02:27:50;;;;;;;3.10;2.75;;;;;;;;;;5157042;27;20536;-63
2023/07/25 02:30:16;;;;;;;2.83;2.70;;;;;;;;;;5157078;27;20562;-63
2023/07/25 02:32:42;;;;;;;2.78;2.58;;;;;;;;;;5154086;27;20393;-63
2023/07/25 02:35:10;;;;;;;2.92;2.72;;;;;;;;;;5153204;27;20247;-63
2023/07/25 02:37:36;;;;;;;3.35;2.90;;;;;;;;;;5155136;27;20230;-63
2023/07/25 02:40:02;;;;;;;5.47;3.15;;;;;;;;;;5156992;27;20239;-63
2023/07/25 02:42:29;;;;;;;2.80;2.65;;;;;;;;;;5155627;27;20221;-63
2023/07/25 02:44:55;;;;;;;2.75;2.60;;;;;;;;;;5153226;27;20201;-63
2023/07/25 02:47:21;;;;;;;3.45;2.55;;;;;;;;;;5153057;27;20239;-63
2023/07/25 02:49:47;;;;;;;3.25;2.90;;;;;;;;;;5156221;27;20194;-63
2023/07/25 02:52:15;;;;;;;3.20;2.50;;;;;;;;;;5156491;27;20194;-63
2023/07/25 02:54:41;;;;;;;2.88;2.35;;;;;;;;;;5154107;27;20393;-63
2023/07/25 02:57:08;;;;;;;3.10;2.90;;;;;;;;;;5152773;27;20217;-63
2023/07/25 02:59:34;;;;;;;3.20;3.00;;;;;;;;;;5153907;27;20272;-63
2023/07/25 03:02:00;;;;;;;3.03;2.83;;;;;;;;;;5156112;27;20269;-63
2023/07/25 03:04:26;;;;;;;2.40;2.22;;;;;;;;;;5156143;27;20205;-63
2023/07/25 03:06:53;;;;;;;2.45;2.35;;;;;;;;;;5152665;27;20191;-63
2023/07/25 03:09:20;;;;;;;4.18;2.90;;;;;;;;;;5152652;27;20198;-63
2023/07/25 03:11:47;;;;;;;3.25;3.05;;;;;;;;;;5155262;27;20498;-63
2023/07/25 03:14:13;;;;;;;2.72;2.53;;;;;;;;;;5156183;27;20194;-63
2023/07/25 03:16:39;;;;;;;3.22;2.60;;;;;;;;;;5153986;27;20221;-63
2023/07/25 03:19:06;;;;;;;2.70;2.60;;;;;;;;;;5152480;27;20199;-63
2023/07/25 03:21:32;;;;;;;3.20;2.90;;;;;;;;;;5153090;27;20397;-63
2023/07/25 03:23:58;;;;;;;2.70;2.60;;;;;;;;;;5156048;27;20258;-63
2023/07/25 03:26:26;;;;;;;2.90;2.70;;;;;;;;;;5155966;27;20257;-63
2023/07/25 03:28:52;;;;;;;4.63;2.72;;;;;;;;;;5155929;27;20213;-63
2023/07/25 03:31:18;;;;;;;2.72;2.63;;;;;;;;;;5155597;27;20213;-63
2023/07/25 03:33:45;;;;;;;2.70;2.50;;;;;;;;;;5153279;27;20396;-63
2023/07/25 03:36:11;;;;;;;2.50;2.40;;;;;;;;;;5152399;27;20194;-63
2023/07/25 03:38:37;;;;;;;3.20;2.55;;;;;;;;;;5152320;27;20199;-63
2023/07/25 03:41:03;;;;;;;2.78;2.63;;;;;;;;;;5152504;27;20194;-63
2023/07/25 03:43:31;;;;;;;2.72;2.60;;;;;;;;;;5151631;27;20194;-63
2023/07/25 03:45:57;;;;;;;3.00;2.65;;;;;;;;;;5151976;27;20400;-63
2023/07/25 03:48:23;;;;;;;2.40;2.30;;;;;;;;;;5152207;27;20195;-63
2023/07/25 03:50:50;;;;;;;3.92;2.60;;;;;;;;;;5155261;27;20193;-63
2023/07/25 03:53:16;;;;;;;4.28;2.95;;;;;;;;;;5154910;27;20422;-63
2023/07/25 03:55:42;;;;;;;3.35;2.92;;;;;;;;;;5153314;27;20377;-63
2023/07/25 03:58:08;;;;;;;2.88;2.67;;;;;;;;;;5152198;27;20432;-63
2023/07/25 04:00:36;;;;;;;3.58;2.53;;;;;;;;;;5152389;27;20202;-63
2023/07/25 04:03:02;;;;;;;3.15;2.95;;;;;;;;;;5155347;27;20193;-63
2023/07/25 04:05:29;;;;;;;2.92;2.78;;;;;;;;;;5155500;27;20217;-63
2023/07/25 04:07:55;;;;;;;2.80;2.58;;;;;;;;;;5143515;27;20190;-63
2023/07/25 04:10:21;;;;;;;2.75;2.65;;;;;;;;;;5151701;27;20201;-63
2023/07/25 04:12:48;;;;;;;2.90;2.80;;;;;;;;;;5153881;27;20265;-63
2023/07/25 04:15:14;;;;;;;3.55;2.90;;;;;;;;;;5155480;27;20209;-63
2023/07/25 04:17:42;;;;;;;3.47;3.25;;;;;;;;;;5153828;27;20225;-63
2023/07/25 04:20:09;;;;;;;3.38;3.17;;;;;;;;;;5151812;27;20525;-63
2023/07/25 04:22:35;;;;;;;3.28;3.08;;;;;;;;;;5151921;27;20202;-63
2023/07/25 04:25:01;;;;;;;3.35;2.75;;;;;;;;;;5155161;27;20416;-62
2023/07/25 04:27:28;;;;;;;2.92;2.83;;;;;;;;;;5155143;27;20281;-63
2023/07/25 04:29:54;;;;;;;3.47;3.17;;;;;;;;;;5151466;27;20394;-63
2023/07/25 04:32:20;;;;;;;2.88;2.78;;;;;;;;;;5151482;27;20506;-62
2023/07/25 04:34:48;;;;;;;3.28;3.03;;;;;;;;;;5153823;27;20238;-62
2023/07/25 04:37:14;;;;;;;2.88;2.50;;;;;;;;;;5155183;27;20220;-62
2023/07/25 04:39:40;;;;;;;4.05;3.25;;;;;;;;;;5153533;27;20204;-62
2023/07/25 04:42:07;;;;;;;3.70;3.30;;;;;;;;;;5151037;27;20198;-62
2023/07/25 04:44:33;;;;;;;3.65;3.30;;;;;;;;;;5151751;27;20205;-62
2023/07/25 04:46:59;;;;;;;5.65;3.22;;;;;;;;;;5151636;27;20190;-62
2023/07/25 04:49:26;;;;;;;3.60;3.40;;;;;;;;;;5151596;27;20499;-62
2023/07/25 04:51:53;;;;;;;4.30;4.00;;;;;;;;;;5154505;27;20265;-62
2023/07/25 04:54:20;;;;;;;3.72;3.28;;;;;;;;;;5154825;27;20194;-62
2023/07/25 04:56:46;;;;;;;4.47;3.60;;;;;;;;;;5152449;27;20261;-62
2023/07/25 04:59:12;;;;;;;4.13;3.47;;;;;;;;;;5151385;27;20210;-62
2023/07/25 05:01:38;;;;;;;3.45;3.25;;;;;;;;;;5151663;27;20202;-62
2023/07/25 05:04:05;;;;;;;4.43;3.35;;;;;;;;;;5154795;27;20197;-62
2023/07/25 05:06:31;;;;;;;5.60;3.42;;;;;;;;;;5158658;27;20197;-62
2023/07/25 05:08:58;;;;;;;5.20;3.63;;;;;;;;;;5154851;27;20194;-62
2023/07/25 05:11:25;;;;;;;3.47;3.10;;;;;;;;;;5154668;27;20194;-62
2023/07/25 05:13:51;;;;;;;3.47;3.25;;;;;;;;;;5157692;27;20396;-62
2023/07/25 05:16:18;;;;;;;3.95;3.30;;;;;;;;;;5161017;27;20202;-62
2023/07/25 05:18:45;;;;;;;5.30;4.25;;;;;;;;;;5156414;27;20222;-62
2023/07/25 05:21:11;;;;;;;6.63;4.20;;;;;;;;;;5158355;27;20201;-62
2023/07/25 05:23:37;;;;;;;4.13;3.60;;;;;;;;;;5157495;27;20539;-62
2023/07/25 05:26:05;;;;;;;6.68;4.03;;;;;;;;;;5154667;27;20198;-62
2023/07/25 05:28:31;;;;;;;4.47;4.00;;;;;;;;;;5154785;27;20221;-62
2023/07/25 05:30:57;;;;;;;4.93;3.80;;;;;;;;;;5158083;27;20230;-62
2023/07/25 05:33:23;;;;;;;4.57;3.20;;;;;;;;;;5157984;27;20392;-62
2023/07/25 05:35:50;;;;;;;5.47;3.20;;;;;;;;;;5155840;27;20258;-62
2023/07/25 05:38:16;;;;;;;5.15;3.45;;;;;;;;;;5154483;27;20233;-62
2023/07/25 05:40:42;;;;;;;6.88;3.63;;;;;;;;;;5155548;27;20207;-62
2023/07/25 05:43:11;;;;;;;5.90;3.70;;;;;;;;;;5158112;27;20194;-62
2023/07/25 05:45:37;;;;;;;3.63;3.38;;;;;;;;;;5157595;27;20217;-62
2023/07/25 05:48:04;;;;;;;5.88;3.50;;;;;;;;;;5154591;27;20400;-62
2023/07/25 05:50:30;;;;;;;3.92;3.25;;;;;;;;;;5154292;27;20214;-62
2023/07/25 05:52:56;;;;;;;3.55;3.35;;;;;;;;;;5156774;27;20209;-62
2023/07/25 05:55:23;;;;;;;5.00;3.95;;;;;;;;;;5157872;27;20493;-62
2023/07/25 05:57:49;;;;;;;5.60;4.10;;;;;;;;;;5155685;27;20439;-62
2023/07/25 06:00:17;;;;;;;4.03;3.75;;;;;;;;;;5154045;27;20433;-62
2023/07/25 06:02:43;;;;;;;3.63;3.33;;;;;;;;;;5154719;27;20209;-62
2023/07/25 06:05:10;;;;;;;4.85;3.90;;;;;;;;;;5157431;27;20502;-62
2023/07/25 06:07:36;;;;;;;4.50;4.18;;;;;;;;;;5157218;27;20217;-62
2023/07/25 06:10:02;;;;;;;3.67;3.47;;;;;;;;;;5154066;27;20199;-62
2023/07/25 06:12:29;;;;;;;4.15;3.70;;;;;;;;;;5153741;27;20198;-62
2023/07/25 06:14:55;;;;;;;5.00;3.65;;;;;;;;;;5156631;27;20204;-62
2023/07/25 06:17:23;;;;;;;4.20;3.88;;;;;;;;;;5156764;27;20249;-62
2023/07/25 06:19:49;;;;;;;3.95;3.53;;;;;;;;;;5155269;27;20229;-62
2023/07/25 06:22:16;;;;;;;7.18;3.80;;;;;;;;;;5153249;27;20656;-62
2023/07/25 06:24:42;;;;;;;5.15;4.03;;;;;;;;;;5154119;27;20218;-62
2023/07/25 06:27:08;;;;;;;9.07;3.70;;;;;;;;;;5157050;27;20221;-62
2023/07/25 06:29:35;;;;;;;3.80;3.60;;;;;;;;;;5157107;27;20202;-62
2023/07/25 06:32:01;;;;;;;4.55;4.13;;;;;;;;;;5153178;27;20200;-62
2023/07/25 06:34:29;;;;;;;9.25;4.38;;;;;;;;;;5153214;27;20406;-62
2023/07/25 06:36:55;;;;;;;6.25;4.10;;;;;;;;;;5155758;27;20206;-62
2023/07/25 06:39:22;;;;;;;5.50;4.05;;;;;;;;;;5138756;27;20296;-57
2023/07/25 06:41:48;;;;;;;4.00;3.70;;;;;;;;;;5152939;27;20218;-56
2023/07/25 06:44:15;;;;;;;3.78;3.58;;;;;;;;;;5139446;27;20541;-56
2023/07/25 06:46:41;;;;;;;5.60;3.88;;;;;;;;;;5153246;27;20414;-58
2023/07/25 06:49:07;;;;;;;4.05;3.70;;;;;;;;;;5148118;27;20203;-57
2023/07/25 06:51:35;;;;;;;4.30;3.92;;;;;;;;;;5128261;27;20222;-55
2023/07/25 06:54:01;;;;;;;3.90;3.63;;;;;;;;;;5142493;27;20213;-54
2023/07/25 06:56:28;;;;;;;5.40;4.05;;;;;;;;;;5140024;27;20301;-59
2023/07/25 06:58:54;;;;;;;4.22;3.92;;;;;;;;;;5140109;27;20289;-56
2023/07/25 07:01:21;;;;;;;3.83;3.53;;;;;;;;;;5138903;27;20459;-57
2023/07/25 07:03:47;;;;;;;7.50;4.05;;;;;;;;;;5146939;27;20210;-57
2023/07/25 07:06:13;;;;;;;3.92;3.63;;;;;;;;;;5138245;27;20210;-57
2023/07/25 07:08:41;;;;;;;4.60;4.18;;;;;;;;;;5148341;27;20201;-57
2023/07/25 07:11:07;;;;;;;3.97;3.67;;;;;;;;;;5142363;27;20201;-58
2023/07/25 07:13:33;;;;;;;4.15;3.80;;;;;;;;;;5150180;27;20556;-57
2023/07/25 07:15:59;;;;;;;7.05;4.28;;;;;;;;;;5147474;27;20659;-55
2023/07/25 07:18:26;;;;;;;6.63;4.43;;;;;;;;;;5148389;27;20563;-57
2023/07/25 07:20:52;;;;;;;6.70;4.20;;;;;;;;;;5147986;27;20210;-58
2023/07/25 07:23:18;;;;;;;7.05;4.60;;;;;;;;;;5143284;27;20509;-57
2023/07/25 07:25:46;;;;;;;4.85;4.40;;;;;;;;;;5149102;27;20209;-57
2023/07/25 07:28:12;;;;;;;4.45;4.03;;;;;;;;;;5145973;27;20210;-57
2023/07/25 07:30:38;;;;;;;6.43;4.00;;;;;;;;;;5146850;27;20214;-56
2023/07/25 07:33:05;;;;;;;6.80;4.78;;;;;;;;;;5149852;27;20206;-56
2023/07/25 07:35:31;;;;;;;6.22;4.25;;;;;;;;;;5145089;27;20210;-56
2023/07/25 07:37:58;;;;;;;9.60;5.00;;;;;;;;;;5136942;27;20229;-56
2023/07/25 07:40:24;;;;;;;5.97;4.88;;;;;;;;;;5137538;27;20484;-55
2023/07/25 07:42:52;;;;;;;5.10;4.63;;;;;;;;;;5147429;27;20285;-57
2023/07/25 07:45:18;;;;;;;4.78;4.38;;;;;;;;;;5149770;27;20272;-57
2023/07/25 07:47:44;;;;;;;4.68;4.18;;;;;;;;;;5139881;27;20213;-55
2023/07/25 07:50:11;;;;;;;7.93;4.63;;;;;;;;;;5143233;27;20543;-55
2023/07/25 07:52:40;;;;;;;5.15;4.35;;;;;;;;;;5144425;27;20217;-56
2023/07/25 07:55:07;;;;;;;4.78;4.32;;;;;;;;;;5137571;27;20518;-55
2023/07/25 07:57:37;;;;;;;6.50;4.30;;;;;;;;;;5139769;27;20546;-56
2023/07/25 08:00:06;;;;;;;5.88;4.50;;;;;;;;;;5149110;27;20549;-56
2023/07/25 08:02:33;;;;;;;7.15;4.63;;;;;;;;;;5140035;27;20284;-57
2023/07/25 08:04:59;;;;;;;6.28;4.57;;;;;;;;;;5143656;27;20206;-56
2023/07/25 08:07:25;;;;;;;8.27;4.55;;;;;;;;;;5139708;27;20198;-56
2023/07/25 08:09:53;;;;;;;7.40;4.32;;;;;;;;;;5142935;27;20207;-55
2023/07/25 08:12:19;;;;;;;5.00;4.57;;;;;;;;;;5145204;27;20214;-56
2023/07/25 08:14:46;;;;;;;6.47;4.82;;;;;;;;;;5136633;27;20551;-57
2023/07/25 08:17:13;;;;;;;6.13;4.43;;;;;;;;;;5142674;27;20429;-58
2023/07/25 08:19:40;;;;;;;5.63;4.47;;;;;;;;;;5145851;27;20225;-58
2023/07/25 08:22:06;;;;;;;6.82;4.43;;;;;;;;;;5139989;27;20380;-57
2023/07/25 08:24:32;;;;;;;5.25;4.80;;;;;;;;;;5142954;27;20553;-58
2023/07/25 08:27:00;;;;;;;5.35;4.85;;;;;;;;;;5146157;27;20241;-58
2023/07/25 08:29:26;;;;;;;6.68;5.10;;;;;;;;;;5149329;27;20209;-58
2023/07/25 08:31:52;;;;;;;5.53;4.18;;;;;;;;;;5148352;27;20829;-58
2023/07/25 08:34:20;;;;;;;5.00;4.35;;;;;;;;;;5139040;27;20228;-58
2023/07/25 08:36:46;;;;;;;4.82;4.43;;;;;;;;;;5145661;27;20730;-58
2023/07/25 08:39:13;;;;;;;4.55;4.15;;;;;;;;;;5140844;27;20285;-58
2023/07/25 08:41:40;;;;;;;4.20;3.90;;;;;;;;;;5146459;27;20210;-58
2023/07/25 08:44:09;;;;;;;4.65;4.13;;;;;;;;;;5153047;27;20221;-58
2023/07/25 08:46:35;;;;;;;5.22;4.00;;;;;;;;;;5141124;27;20486;-58
2023/07/25 08:49:03;;;;;;;3.60;3.38;;;;;;;;;;5149257;27;20518;-58
2023/07/25 08:51:33;;;;;;;4.43;4.03;;;;;;;;;;5145015;27;20281;-55
2023/07/25 08:54:02;;;;;;;4.32;3.60;;;;;;;;;;5144549;27;20214;-58
2023/07/25 08:56:28;;;;;;;3.88;3.58;;;;;;;;;;5142833;27;20210;-58
2023/07/25 08:58:55;;;;;;;3.85;3.30;;;;;;;;;;5150696;27;20471;-57
2023/07/25 09:01:22;;;;;;;3.67;3.30;;;;;;;;;;5150004;27;20440;-57
2023/07/25 09:03:48;;;;;;;6.15;3.90;;;;;;;;;;5147768;27;20217;-57
2023/07/25 09:06:14;;;;;;;3.33;3.03;;;;;;;;;;5145271;27;20237;-58
2023/07/25 09:08:42;;;;;;;3.63;2.97;;;;;;;;;;5149551;27;20281;-58
2023/07/25 09:11:09;;;;;;;8.35;3.20;;;;;;;;;;5149213;27;20207;-58
2023/07/25 09:13:35;;;;;;;4.07;3.67;;;;;;;;;;5147748;27;20214;-57
2023/07/25 09:16:02;;;;;;;4.15;3.83;;;;;;;;;;5143875;27;20221;-57
2023/07/25 09:18:28;;;;;;;4.32;3.55;;;;;;;;;;5149210;27;20229;-58
2023/07/25 09:20:54;;;;;;;3.22;3.00;;;;;;;;;;5149087;27;20205;-61
2023/07/25 09:23:21;;;;;;;3.08;2.55;;;;;;;;;;5144421;27;20383;-57
2023/07/25 09:25:50;;;;;;;2.67;2.33;;;;;;;;;;5151470;27;20494;-57
2023/07/25 09:28:16;;;;;;;2.33;2.08;;;;;;;;;;5152083;27;20222;-57
2023/07/25 09:30:46;;;;;;;1.30;1.20;;;;;;;;;;5141807;27;20210;-57
2023/07/25 09:33:23;;;;;;;1.20;1.10;;;;;;;;;;5147544;27;20206;-56
2023/07/25 09:35:50;;;;;;;1.23;1.23;;;;;;;;;;5143087;27;20210;-57
2023/07/25 09:38:16;;;;;;;2.92;1.20;;;;;;;;;;5143794;27;20433;-57
2023/07/25 09:40:44;;;;;;;1.02;1.02;;;;;;;;;;5145761;27;20221;-57
2023/07/25 09:43:21;;;;;;;1.63;1.30;;;;;;;;;;5143067;27;20206;-57
2023/07/25 09:45:47;;;;;;;1.25;1.13;;;;;;;;;;5148547;27;20210;-57
2023/07/25 09:48:15;;;;;;;1.52;1.00;;;;;;;;;;5145699;27;20210;-57
2023/07/25 09:50:43;;;;;;;5.15;1.20;;;;;;;;;;5141971;27;20210;-57
2023/07/25 09:53:10;;;;;;;3.00;1.30;;;;;;;;;;5147917;27;20577;-58
2023/07/25 09:55:36;;;;;;;1.17;1.13;;;;;;;;;;5145340;27;20218;-56
2023/07/25 09:58:03;;;;;;;1.23;1.20;;;;;;;;;;5149904;27;20590;-56
2023/07/25 10:00:30;;;;;;;1.48;1.20;;;;;;;;;;5143842;27;20221;-57
2023/07/25 10:02:57;;;;;;;3.60;1.17;;;;;;;;;;5146369;27;20398;-57
2023/07/25 10:05:24;;;;;;;1.98;1.10;;;;;;;;;;5150807;27;20532;-55
2023/07/25 10:07:52;;;;;;;2.45;1.20;;;;;;;;;;5144546;27;20237;-57
2023/07/25 10:10:18;;;;;;;1.20;1.10;;;;;;;;;;5146476;27;20209;-57
2023/07/25 10:12:45;;;;;;;1.00;0.90;;;;;;;;;;5147378;27;20209;-56
2023/07/25 10:15:12;;;;;;;0.95;0.95;;;;;;;;;;5148440;27;20205;-57
2023/07/25 10:17:40;;;;;;;1.35;1.13;;;;;;;;;;5140025;27;20417;-56
2023/07/25 10:20:07;;;;;;;1.23;1.02;;;;;;;;;;5140994;27;20422;-56
2023/07/25 10:22:34;;;;;;;1.02;1.00;;;;;;;;;;5150371;27;20214;-56
2023/07/25 10:25:00;;;;;;;0.80;0.80;;;;;;;;;;5135785;27;20221;-57
2023/07/25 10:27:27;;;;;;;1.45;1.25;;;;;;;;;;5137481;27;20399;-57
2023/07/25 10:29:53;;;;;;;1.05;0.95;;;;;;;;;;5138912;27;20206;-57
2023/07/25 10:32:21;;;;;;;0.90;0.90;;;;;;;;;;5138000;27;20207;-55
2023/07/25 10:34:50;;;;;;;2.70;1.20;;;;;;;;;;5140741;27;20210;-56
2023/07/25 10:37:20;;;;;;;3.42;1.48;;;;;;;;;;5133540;27;20210;-55
2023/07/25 10:39:46;;;;;;;1.65;1.10;;;;;;;;;;5141128;27;20429;-56
2023/07/25 10:42:15;;;;;;;4.32;1.30;;;;;;;;;;5139844;27;20229;-56
2023/07/25 10:44:41;;;;;;;1.08;0.98;;;;;;;;;;5137801;27;20214;-55
2023/07/25 10:47:22;;;;;;;1.05;1.05;;;;;;;;;;5136089;27;20410;-57
2023/07/25 10:49:56;;;;;;;3.80;1.17;;;;;;;;;;5135596;27;20214;-58
2023/07/25 10:52:37;;;;;;;2.28;1.10;;;;;;;;;;5129328;27;20207;-57
2023/07/25 10:55:04;;;;;;;2.25;1.15;;;;;;;;;;5134426;27;20412;-59
2023/07/25 10:57:30;;;;;;;2.25;1.20;;;;;;;;;;5135011;27;20211;-58
2023/07/25 10:59:57;;;;;;;3.13;1.08;;;;;;;;;;5136171;27;20222;-59
2023/07/25 11:02:33;;;;;;;1.73;1.30;;;;;;;;;;5131511;27;20506;-59
2023/07/25 11:05:18;;;;;;;2.20;1.10;;;;;;;;;;5140319;27;20241;-59
2023/07/25 11:07:50;;;;;;;1.00;1.00;;;;;;;;;;5134477;27;20210;-59
2023/07/25 11:10:19;;;;;;;1.95;1.10;;;;;;;;;;5131447;27;20207;-59
2023/07/25 11:12:47;;;;;;;1.67;1.02;;;;;;;;;;5125684;27;20211;-59
2023/07/25 11:15:13;;;;;;;1.23;1.00;;;;;;;;;;5136558;27;20236;-57
2023/07/25 11:17:40;;;;;;;2.80;0.70;;;;;;;;;;5135275;27;20210;-56
2023/07/25 11:20:13;;;;;;;1.40;0.98;;;;;;;;;;5134504;27;20545;-57
2023/07/25 11:22:41;;;;;;;2.08;0.70;;;;;;;;;;5132905;27;20210;-58
2023/07/25 11:25:09;;;;;;;3.95;0.75;;;;;;;;;;5128900;27;20210;-57
2023/07/25 11:27:35;;;;;;;1.52;1.00;;;;;;;;;;5126802;27;20236;-58
2023/07/25 11:30:12;;;;;;;1.27;1.17;;;;;;;;;;5128382;27;20211;-58
2023/07/25 11:32:39;;;;;;;1.77;1.00;;;;;;;;;;5140565;27;20209;-57
2023/07/25 11:35:06;;;;;;;1.55;1.13;;;;;;;;;;5131174;27;20210;-58
2023/07/25 11:37:32;;;;;;;1.20;1.10;;;;;;;;;;5134270;27;20236;-58
2023/07/25 11:40:11;;;;;;;1.98;0.93;;;;;;;;;;5135995;27;20230;-58
2023/07/25 11:42:39;;;;;;;1.35;1.35;;;;;;;;;;5134637;27;20210;-58
2023/07/25 11:45:06;;;;;;;0.80;0.80;;;;;;;;;;5138422;27;20206;-58
2023/07/25 11:47:32;;;;;;;0.85;0.82;;;;;;;;;;5136633;27;20241;-57
2023/07/25 11:49:59;;;;;;;0.93;0.90;;;;;;;;;;5131828;27;20221;-58
2023/07/25 11:52:25;;;;;;;1.75;0.95;;;;;;;;;;5134547;27;20206;-58
2023/07/25 11:54:52;;;;;;;1.60;0.90;;;;;;;;;;5139498;27;20233;-58
2023/07/25 11:57:19;;;;;;;1.20;1.10;;;;;;;;;;5133376;27;20206;-58
2023/07/25 11:59:47;;;;;;;1.55;1.00;;;;;;;;;;5132136;27;20238;-58
2023/07/25 12:02:14;;;;;;;2.35;0.90;;;;;;;;;;5128649;27;20210;-59
2023/07/25 12:04:42;;;;;;;0.90;0.90;;;;;;;;;;5128445;27;20437;-59
2023/07/25 12:07:09;;;;;;;2.20;1.13;;;;;;;;;;5135586;27;20210;-59
2023/07/25 12:09:36;;;;;;;0.90;0.90;;;;;;;;;;5140264;27;20529;-56
2023/07/25 12:12:02;;;;;;;1.00;1.00;;;;;;;;;;5122384;27;20485;-58
2023/07/25 12:14:30;;;;;;;6.07;1.00;;;;;;;;;;5123893;27;20218;-58
2023/07/25 12:17:02;;;;;;;0.90;0.90;;;;;;;;;;5132005;27;20435;-58
2023/07/25 12:19:31;;;;;;;0.90;0.90;;;;;;;;;;5125134;27;20237;-56
2023/07/25 12:22:04;;;;;;;2.30;0.90;;;;;;;;;;5130952;28;20214;-58
2023/07/25 12:24:39;;;;;;;2.15;1.10;;;;;;;;;;5133352;28;20404;-58
2023/07/25 12:27:15;;;;;;;0.90;0.90;;;;;;;;;;5130862;27;20549;-58
2023/07/25 12:29:42;;;;;;;3.95;0.80;;;;;;;;;;5134886;28;20206;-59
2023/07/25 12:32:09;;;;;;;0.40;0.40;;;;;;;;;;5139382;27;20213;-56
2023/07/25 12:34:35;;;;;;;1.52;0.40;;;;;;;;;;5139756;27;20210;-56
2023/07/25 12:37:01;;;;;;;1.13;0.47;;;;;;;;;;5135233;27;20209;-56
2023/07/25 12:39:29;;;;;;;1.10;0.60;;;;;;;;;;5134809;27;20234;-57
2023/07/25 12:41:55;;;;;;;0.80;0.80;;;;;;;;;;5138976;27;20248;-57
2023/07/25 12:44:21;;;;;;;5.47;1.90;;;;;;;;;;5135537;27;20566;-58
2023/07/25 12:46:49;;;;;;;1.85;0.80;;;;;;;;;;5140285;27;20210;-58
2023/07/25 12:49:15;;;;;;;0.70;0.70;;;;;;;;;;5133642;27;20213;-57
2023/07/25 12:51:41;;;;;;;1.80;0.80;;;;;;;;;;5128813;28;20242;-57
2023/07/25 12:54:08;;;;;;;1.27;0.70;;;;;;;;;;5130042;27;20281;-58
2023/07/25 12:56:34;;;;;;;0.82;0.82;;;;;;;;;;5129545;28;20234;-56
2023/07/25 12:59:00;;;;;;;0.95;0.77;;;;;;;;;;5138978;27;20448;-56
2023/07/25 13:01:26;;;;;;;0.90;0.60;;;;;;;;;;5139552;27;20413;-58
2023/07/25 13:03:54;;;;;;;0.93;0.50;;;;;;;;;;5139657;27;20247;-57
2023/07/25 13:06:20;;;;;;;0.38;0.38;;;;;;;;;;5139481;27;20210;-57
2023/07/25 13:08:46;;;;;;;2.38;0.50;;;;;;;;;;5139795;27;20210;-57
2023/07/25 13:11:13;;;;;;;1.80;0.70;;;;;;;;;;5139453;27;20207;-57
2023/07/25 13:13:39;;;;;;;1.52;0.57;;;;;;;;;;5131303;27;20214;-57
2023/07/25 13:16:06;;;;;;;0.52;0.52;;;;;;;;;;5135584;27;20214;-58
2023/07/25 13:18:32;;;;;;;0.68;0.60;;;;;;;;;;5139711;27;20210;-58
2023/07/25 13:21:00;;;;;;;1.98;0.50;;;;;;;;;;5130277;27;20757;-58
2023/07/25 13:23:26;;;;;;;0.77;0.77;;;;;;;;;;5139046;27;20214;-57
2023/07/25 13:25:52;;;;;;;2.53;0.60;;;;;;;;;;5139339;27;20241;-56
2023/07/25 13:28:19;;;;;;;2.92;0.57;;;;;;;;;;5138808;27;20244;-59
2023/07/25 13:30:45;;;;;;;0.70;0.70;;;;;;;;;;5143400;27;20542;-58
2023/07/25 13:33:11;;;;;;;0.98;0.70;;;;;;;;;;5134639;27;20254;-58
2023/07/25 13:35:38;;;;;;;0.70;0.70;;;;;;;;;;5143403;27;20210;-57
2023/07/25 13:38:06;;;;;;;1.40;0.70;;;;;;;;;;5143915;27;20210;-58
2023/07/25 13:40:33;;;;;;;1.90;0.85;;;;;;;;;;5143083;27;20553;-58
2023/07/25 13:42:59;;;;;;;0.63;0.63;;;;;;;;;;5142639;27;20210;-59
2023/07/25 13:45:26;;;;;;;0.77;0.77;;;;;;;;;;5143108;27;20502;-58
2023/07/25 13:47:52;;;;;;;1.40;0.70;;;;;;;;;;5142389;27;20230;-58
2023/07/25 13:50:18;;;;;;;2.90;0.77;;;;;;;;;;5142522;27;20207;-59
2023/07/25 13:52:45;;;;;;;2.47;0.85;;;;;;;;;;5142436;27;20210;-58
2023/07/25 13:55:12;;;;;;;1.25;0.68;;;;;;;;;;5142453;27;20210;-58
2023/07/25 13:57:39;;;;;;;1.17;0.60;;;;;;;;;;5142474;27;20566;-59
2023/07/25 14:00:06;;;;;;;0.60;0.60;;;;;;;;;;5143243;27;20226;-58
2023/07/25 14:02:33;;;;;;;1.33;0.60;;;;;;;;;;5141963;27;20677;-58
2023/07/25 14:05:00;;;;;;;0.55;0.55;;;;;;;;;;5141639;27;20317;-58
2023/07/25 14:07:26;;;;;;;0.60;0.60;;;;;;;;;;5142577;27;20218;-58
2023/07/25 14:09:52;;;;;;;0.75;0.75;;;;;;;;;;5142346;27;20206;-58
2023/07/25 14:12:20;;;;;;;0.60;0.60;;;;;;;;;;5141849;27;20533;-58
2023/07/25 14:14:46;;;;;;;0.60;0.60;;;;;;;;;;5142737;27;20214;-58
2023/07/25 14:17:12;;;;;;;0.73;0.73;;;;;;;;;;5142756;27;20255;-58
2023/07/25 14:19:38;;;;;;;0.88;0.80;;;;;;;;;;5142235;27;20463;-58
2023/07/25 14:22:05;;;;;;;2.67;0.60;;;;;;;;;;5141769;27;20435;-57
2023/07/25 14:24:31;;;;;;;1.10;0.75;;;;;;;;;;5142817;27;20217;-58
2023/07/25 14:26:58;;;;;;;4.97;0.80;;;;;;;;;;5142181;27;20214;-57
2023/07/25 14:29:25;;;;;;;1.65;0.60;;;;;;;;;;5142229;27;20222;-58
2023/07/25 14:31:51;;;;;;;0.70;0.70;;;;;;;;;;5142422;27;20202;-58
2023/07/25 14:34:18;;;;;;;0.50;0.50;;;;;;;;;;5141244;27;20522;-58
2023/07/25 14:36:44;;;;;;;0.80;0.60;;;;;;;;;;5142326;27;20210;-57
2023/07/25 14:39:10;;;;;;;0.60;0.60;;;;;;;;;;5141790;27;20233;-57
2023/07/25 14:41:36;;;;;;;2.20;0.70;;;;;;;;;;5141802;27;20226;-56
2023/07/25 14:44:03;;;;;;;0.95;0.50;;;;;;;;;;5141884;27;20210;-57